Time;durP1;ratioP1;P1;durP2;ratioP2;P2;SDS_P1;SDS_P2;PMS_P1;PMS_P2;Temp;Humidity;BMP_temperature;BMP_pressure;BME280_temperature;BME280_humidity;BME280_pressure;Samples;Min_cycle;Max_cycle;Signal;HPM_P1;HPM_P2
2023/12/02 11:29:53;;;;;;;31.35;16.27;;;3.20;1.00;;;;;;5094208;28;20113;-66
2023/12/02 11:32:39;;;;;;;34.58;16.90;;;2.50;1.00;;;;;;5094353;28;20086;-67
2023/12/02 11:35:11;;;;;;;31.75;16.17;;;2.70;1.00;;;;;;5093443;28;20024;-66
2023/12/02 11:37:57;;;;;;;34.30;15.73;;;2.90;1.00;;;;;;5094185;28;20039;-66
2023/12/02 11:40:37;;;;;;;32.70;16.23;;;2.60;1.00;;;;;;5093584;28;20035;-66
2023/12/02 11:43:12;;;;;;;33.85;16.85;;;2.60;1.00;;;;;;5094145;28;20028;-66
2023/12/02 11:45:40;;;;;;;32.22;15.75;;;3.00;27.90;;;;;;5093195;28;20119;-67
2023/12/02 11:48:18;;;;;;;32.85;16.88;;;3.10;1.00;;;;;;5093180;28;20035;-68
2023/12/02 11:51:16;;;;;;;31.23;16.17;;;3.10;1.00;;;;;;5094026;28;20028;-67
2023/12/02 11:54:21;;;;;;;32.33;17.25;;;3.30;1.00;;;;;;5068020;28;20115;-66
2023/12/02 11:57:05;;;;;;;30.17;15.98;;;3.50;1.00;;;;;;5090249;28;20044;-66
2023/12/02 11:59:54;;;;;;;34.30;17.25;;;3.70;1.00;;;;;;5093260;28;20302;-66
2023/12/02 12:03:00;;;;;;;30.88;16.55;;;3.90;1.00;;;;;;5093865;28;20052;-66
2023/12/02 12:05:42;;;;;;;34.17;18.00;;;3.90;1.00;;;;;;5093065;28;20313;-66
2023/12/02 12:08:22;;;;;;;30.90;16.95;;;3.70;1.00;;;;;;5093689;28;20077;-65
2023/12/02 12:10:52;;;;;;;33.38;17.15;;;3.70;1.00;;;;;;5093857;28;20029;-66
2023/12/02 12:13:22;;;;;;;32.20;16.20;;;3.50;1.00;;;;;;5093420;28;20073;-65
2023/12/02 12:15:48;;;;;;;35.25;18.25;;;3.40;1.00;;;;;;5075894;28;20062;-65
2023/12/02 12:18:17;;;;;;;33.65;17.73;;;3.50;1.00;;;;;;5059291;28;20131;-65
2023/12/02 12:20:44;;;;;;;37.45;18.17;;;3.50;1.00;;;;;;5092823;28;20291;-65
2023/12/02 12:23:11;;;;;;;32.03;16.52;;;3.80;1.00;;;;;;5093025;28;20288;-66
2023/12/02 12:25:37;;;;;;;31.98;16.92;;;3.90;1.00;;;;;;5093411;28;20173;-65
2023/12/02 12:28:04;;;;;;;30.65;16.73;;;4.00;1.00;;;;;;5093121;28;20128;-65
2023/12/02 12:30:44;;;;;;;34.50;18.20;;;4.00;1.00;;;;;;5093273;28;20035;-65
2023/12/02 12:33:13;;;;;;;33.55;17.60;;;3.90;1.00;;;;;;5093200;28;20303;-64
2023/12/02 12:35:39;;;;;;;31.88;16.88;;;3.70;1.00;;;;;;5092536;28;20016;-65
2023/12/02 12:38:07;;;;;;;36.50;17.73;;;3.60;1.00;;;;;;5093006;28;20421;-65
2023/12/02 12:40:39;;;;;;;33.75;17.50;;;3.70;1.00;;;;;;5081388;28;20029;-66
2023/12/02 12:43:08;;;;;;;34.30;17.13;;;4.00;1.00;;;;;;5078796;28;20043;-66
2023/12/02 12:45:34;;;;;;;36.65;18.27;;;4.10;1.00;;;;;;5078655;28;20326;-66
2023/12/02 12:48:03;;;;;;;33.65;16.83;;;4.10;1.00;;;;;;5079307;28;20037;-66
2023/12/02 12:50:33;;;;;;;29.80;16.67;;;3.70;1.00;;;;;;5079408;28;20352;-66
2023/12/02 12:53:12;;;;;;;36.47;18.85;;;3.30;1.00;;;;;;5061865;28;20377;-66
2023/12/02 12:55:45;;;;;;;35.58;17.40;;;3.30;1.00;;;;;;5079526;28;20402;-67
2023/12/02 12:58:16;;;;;;;32.05;15.82;;;3.40;1.00;;;;;;5078921;28;20032;-67
2023/12/02 13:00:46;;;;;;;30.75;17.02;;;3.70;1.00;;;;;;5079242;28;20032;-66
2023/12/02 13:03:36;;;;;;;33.88;18.05;;;3.80;1.00;;;;;;5079179;28;20074;-64
2023/12/02 13:06:25;;;;;;;35.15;18.40;;;3.90;1.00;;;;;;5078374;28;20021;-64
2023/12/02 13:09:05;;;;;;;34.85;18.08;;;4.10;1.00;;;;;;5078174;28;20341;-64
2023/12/02 13:11:33;;;;;;;32.60;17.23;;;4.20;1.00;;;;;;5079008;28;20355;-64
2023/12/02 13:14:05;;;;;;;36.80;19.10;;;4.20;1.00;;;;;;5079161;28;20326;-63
2023/12/02 13:16:31;;;;;;;;;;;4.20;1.00;;;;;;5079778;28;20064;-63
2023/12/02 13:19:00;;;;;;;33.47;16.85;;;4.20;1.00;;;;;;5078864;28;20298;-64
2023/12/02 13:21:27;;;;;;;31.85;17.42;;;4.00;1.00;;;;;;5061405;28;20033;-66
2023/12/02 13:23:56;;;;;;;32.40;17.73;;;4.20;1.00;;;;;;5078132;28;20024;-65
2023/12/02 13:26:30;;;;;;;34.97;17.80;;;4.20;1.00;;;;;;5077943;28;20032;-64
2023/12/02 13:28:57;;;;;;;35.92;18.42;;;4.20;1.00;;;;;;5078302;28;20068;-65
2023/12/02 13:31:25;;;;;;;37.53;19.33;;;4.20;1.00;;;;;;5078380;28;20040;-64
2023/12/02 13:34:11;;;;;;;34.75;17.52;;;4.40;1.00;;;;;;5078173;28;20012;-65
2023/12/02 13:36:46;;;;;;;33.75;17.38;;;4.30;1.00;;;;;;5078707;28;20295;-64
2023/12/02 13:39:14;;;;;;;34.95;17.67;;;4.40;1.00;;;;;;5078071;28;20345;-63
2023/12/02 13:42:12;;;;;;;34.95;17.08;;;4.00;1.00;;;;;;5078202;28;20062;-65
2023/12/02 13:44:40;;;;;;;34.58;17.13;;;3.80;1.00;;;;;;5077793;28;20041;-64
2023/12/02 13:47:21;;;;;;;34.92;17.23;;;4.00;1.00;;;;;;5077396;28;20032;-65
2023/12/02 13:49:55;;;;;;;33.92;16.77;;;4.10;1.00;;;;;;5077462;28;20070;-65
2023/12/02 13:52:49;;;;;;;33.53;16.85;;;4.00;1.00;;;;;;5076624;28;20288;-66
2023/12/02 13:55:34;;;;;;;35.13;16.92;;;3.60;1.00;;;;;;5078259;28;20040;-64
2023/12/02 13:58:10;;;;;;;34.00;16.42;;;3.60;1.00;;;;;;5078056;28;20032;-64
2023/12/02 14:00:47;;;;;;;29.30;15.55;;;3.70;1.00;;;;;;5077257;28;20032;-64
2023/12/02 14:03:34;;;;;;;36.03;17.23;;;3.70;1.00;;;;;;5060449;28;20090;-64
2023/12/02 14:06:16;;;;;;;33.53;16.88;;;3.70;1.00;;;;;;5077761;28;20058;-64
2023/12/02 14:08:45;;;;;;;35.28;17.15;;;3.50;1.00;;;;;;5077768;28;20107;-65
2023/12/02 14:11:16;;;;;;;34.33;16.30;;;3.50;1.00;;;;;;5077030;28;20078;-64
2023/12/02 14:13:51;;;;;;;23.80;11.43;;;3.50;1.00;;;;;;5077888;28;20089;-66
2023/12/02 14:16:37;;;;;;;33.30;16.55;;;3.60;1.00;;;;;;5077751;28;20098;-65
2023/12/02 14:19:19;;;;;;;32.10;15.63;;;3.70;1.00;;;;;;5076899;28;20102;-64
2023/12/02 14:22:16;;;;;;;31.58;15.60;;;3.90;1.00;;;;;;5077773;28;20071;-64
2023/12/02 14:25:10;;;;;;;32.25;16.77;;;3.80;1.00;;;;;;5076745;28;20040;-65
2023/12/02 14:27:58;;;;;;;36.85;16.85;;;3.60;1.00;;;;;;5076574;28;20044;-64
2023/12/02 14:30:58;;;;;;;36.20;17.58;;;3.40;1.00;;;;;;5076729;28;20024;-64
2023/12/02 14:33:43;;;;;;;33.45;16.83;;;3.20;1.00;;;;;;5076925;28;20024;-64
2023/12/02 14:36:33;;;;;;;33.90;16.85;;;3.10;1.00;;;;;;5076838;28;20032;-63
2023/12/02 14:39:33;;;;;;;32.90;16.27;;;2.90;1.00;;;;;;5076639;28;20098;-64
2023/12/02 14:42:08;;;;;;;30.63;16.33;;;2.90;6.50;;;;;;5076513;28;20032;-64
2023/12/02 14:44:35;;;;;;;34.17;17.45;;;2.80;2.70;;;;;;5077201;28;20111;-64
2023/12/02 14:47:04;;;;;;;33.50;16.85;;;2.70;12.20;;;;;;5077184;28;20025;-64
2023/12/02 14:49:36;;;;;;;34.85;16.75;;;2.80;17.60;;;;;;5076594;28;20078;-64
2023/12/02 14:52:02;;;;;;;23.00;12.45;;;2.90;10.00;;;;;;5076608;28;20033;-64
2023/12/02 14:54:31;;;;;;;34.67;17.75;;;3.00;12.10;;;;;;5059628;28;20032;-64
2023/12/02 14:57:25;;;;;;;35.95;18.38;;;3.10;1.00;;;;;;5077085;28;20108;-64
2023/12/02 14:59:58;;;;;;;32.92;16.73;;;2.90;1.00;;;;;;5075683;28;20060;-64
2023/12/02 15:02:37;;;;;;;34.22;17.60;;;2.80;1.80;;;;;;5076094;28;20130;-64
2023/12/02 15:05:04;;;;;;;31.95;16.48;;;2.70;9.10;;;;;;5076879;28;20039;-64
2023/12/02 15:07:41;;;;;;;32.08;15.48;;;2.70;5.10;;;;;;5076142;28;20058;-64
2023/12/02 15:10:10;;;;;;;33.58;16.00;;;2.80;5.90;;;;;;5076923;28;20291;-64
2023/12/02 15:12:41;;;;;;;33.97;16.58;;;2.70;1.00;;;;;;5076828;28;20056;-64
2023/12/02 15:15:07;;;;;;;34.88;16.00;;;2.60;8.40;;;;;;5076086;28;20024;-64
2023/12/02 15:17:36;;;;;;;38.35;17.02;;;2.70;14.60;;;;;;5059387;28;20091;-64
2023/12/02 15:20:12;;;;;;;34.63;17.75;;;2.90;11.20;;;;;;5076011;28;20126;-64
2023/12/02 15:22:37;;;;;;;32.67;16.77;;;2.80;4.30;;;;;;5076888;28;20395;-64
2023/12/02 15:25:04;;;;;;;34.75;17.52;;;2.90;2.80;;;;;;5076759;28;20185;-64
2023/12/02 15:27:29;;;;;;;36.28;17.55;;;2.80;8.30;;;;;;5075760;28;20132;-65
2023/12/02 15:29:55;;;;;;;38.22;17.65;;;2.90;8.40;;;;;;5059259;28;20123;-64
2023/12/02 15:32:21;;;;;;;31.52;16.25;;;2.70;3.80;;;;;;5076775;28;20033;-64
2023/12/02 15:34:47;;;;;;;34.00;17.83;;;2.50;22.20;;;;;;5059242;28;20395;-64
2023/12/02 15:37:13;;;;;;;32.13;15.93;;;2.40;37.30;;;;;;5076574;28;20103;-64
2023/12/02 15:39:39;;;;;;;32.92;16.83;;;2.50;36.90;;;;;;5059261;28;20035;-64
2023/12/02 15:42:06;;;;;;;32.80;17.55;;;2.50;34.50;;;;;;5075908;28;20391;-64
2023/12/02 15:44:46;;;;;;;34.13;16.52;;;2.50;41.10;;;;;;5076446;28;20086;-65
2023/12/02 15:47:13;;;;;;;33.35;16.25;;;2.50;43.60;;;;;;5059252;28;20029;-65
2023/12/02 15:49:39;;;;;;;33.38;17.10;;;2.50;39.30;;;;;;5075845;28;20055;-65
2023/12/02 15:52:06;;;;;;;37.10;17.90;;;2.60;38.40;;;;;;5075730;28;20334;-65
2023/12/02 15:54:35;;;;;;;35.05;16.83;;;2.60;36.20;;;;;;5076599;28;20036;-65
2023/12/02 15:57:01;;;;;;;31.65;17.42;;;2.60;24.10;;;;;;5075778;28;20052;-65
2023/12/02 15:59:27;;;;;;;37.22;17.42;;;2.60;32.40;;;;;;5076481;28;20128;-66
2023/12/02 16:01:55;;;;;;;37.67;18.08;;;2.60;31.30;;;;;;5075814;28;20060;-65
2023/12/02 16:04:22;;;;;;;36.95;19.05;;;2.70;31.00;;;;;;5075420;28;20059;-65
2023/12/02 16:06:49;;;;;;;37.78;18.10;;;2.70;33.10;;;;;;5074666;28;20029;-65
2023/12/02 16:09:22;;;;;;;38.45;18.55;;;2.70;37.90;;;;;;5075466;28;20028;-65
2023/12/02 16:11:51;;;;;;;33.53;17.67;;;2.60;35.80;;;;;;5075309;28;20037;-65
2023/12/02 16:14:17;;;;;;;36.42;16.73;;;2.60;28.50;;;;;;5075846;28;20032;-65
2023/12/02 16:16:43;;;;;;;35.88;17.02;;;2.50;35.40;;;;;;5079192;28;20025;-65
2023/12/02 16:19:09;;;;;;;36.08;17.10;;;2.40;42.70;;;;;;5078395;28;20032;-65
2023/12/02 16:21:35;;;;;;;34.20;15.93;;;2.40;48.50;;;;;;5078425;28;20028;-65
2023/12/02 16:24:03;;;;;;;35.47;18.02;;;2.30;54.80;;;;;;5078504;28;20040;-65
2023/12/02 16:26:29;;;;;;;31.95;16.83;;;2.30;62.50;;;;;;5079106;28;20086;-65
2023/12/02 16:28:55;;;;;;;33.88;17.38;;;2.30;63.30;;;;;;5077798;28;20052;-64
2023/12/02 16:31:25;;;;;;;37.67;17.00;;;2.40;59.40;;;;;;5078427;28;20094;-65
2023/12/02 16:33:51;;;;;;;37.47;18.35;;;2.40;59.00;;;;;;5077980;28;20036;-65
2023/12/02 16:36:18;;;;;;;32.63;16.73;;;2.30;68.40;;;;;;5077935;28;20122;-64
2023/12/02 16:38:46;;;;;;;31.05;15.85;;;2.20;73.20;;;;;;5077934;28;20033;-64
2023/12/02 16:41:12;;;;;;;39.28;18.10;;;2.10;80.70;;;;;;5078455;28;20024;-64
2023/12/02 16:43:39;;;;;;;33.92;17.05;;;2.10;84.30;;;;;;5078432;28;20036;-63
2023/12/02 16:46:05;;;;;;;39.78;20.02;;;2.00;87.50;;;;;;5061532;28;20303;-64
2023/12/02 16:48:31;;;;;;;43.03;18.98;;;1.90;89.90;;;;;;5078475;28;20296;-64
2023/12/02 16:50:57;;;;;;;42.03;20.35;;;1.90;90.10;;;;;;5077564;28;20051;-64
2023/12/02 16:53:24;;;;;;;40.00;21.13;;;1.70;93.90;;;;;;5077822;28;20055;-63
2023/12/02 16:55:54;;;;;;;42.15;19.85;;;1.60;99.90;;;;;;5077685;28;20028;-64
2023/12/02 16:58:25;;;;;;;38.40;20.38;;;1.40;99.90;;;;;;5077760;28;20043;-63
2023/12/02 17:00:58;;;;;;;39.90;20.48;;;1.30;99.90;;;;;;5077679;28;20036;-63
2023/12/02 17:03:30;;;;;;;43.25;20.92;;;1.30;99.90;;;;;;5078554;28;20073;-64
2023/12/02 17:06:11;;;;;;;42.63;19.80;;;1.30;99.90;;;;;;5078468;28;20101;-64
2023/12/02 17:08:45;;;;;;;37.65;19.45;;;1.20;99.90;;;;;;5078495;28;20058;-63
2023/12/02 17:11:17;;;;;;;40.05;20.42;;;1.20;99.90;;;;;;5078457;28;20029;-64
2023/12/02 17:13:58;;;;;;;27.45;13.57;;;1.20;99.90;;;;;;5078271;28;20043;-63
2023/12/02 17:16:30;;;;;;;42.10;19.30;;;1.20;99.90;;;;;;5078243;28;20129;-64
2023/12/02 17:21:33;;;;;;;43.17;20.58;;;1.20;99.90;;;;;;5078889;28;20029;-64
2023/12/02 17:24:06;;;;;;;46.80;20.25;;;1.10;99.90;;;;;;5077976;28;20034;-64
2023/12/02 17:26:33;;;;;;;50.75;22.50;;;1.10;99.90;;;;;;5078804;28;20043;-64
2023/12/02 17:28:59;;;;;;;53.80;25.17;;;1.10;99.90;;;;;;5077795;28;20036;-64
2023/12/02 17:31:25;;;;;;;50.65;24.40;;;1.00;99.90;;;;;;5078068;28;20123;-64
2023/12/02 17:33:51;;;;;;;46.28;23.38;;;1.00;99.90;;;;;;5077653;28;20016;-64
2023/12/02 17:36:17;;;;;;;53.50;25.50;;;1.00;99.90;;;;;;5077652;28;20123;-65
2023/12/02 17:38:43;;;;;;;48.30;22.73;;;1.00;99.90;;;;;;5078607;28;20125;-65
2023/12/02 17:41:09;;;;;;;50.28;23.83;;;1.00;99.90;;;;;;5078500;28;20032;-65
2023/12/02 17:43:35;;;;;;;57.58;26.95;;;0.90;99.90;;;;;;5077682;28;20045;-65
2023/12/02 17:46:01;;;;;;;54.92;25.40;;;0.90;99.90;;;;;;5078261;28;20311;-68
2023/12/02 17:48:27;;;;;;;55.50;26.10;;;0.90;99.90;;;;;;5078208;28;20036;-65
2023/12/02 17:50:52;;;;;;;48.85;24.55;;;0.90;99.90;;;;;;5078227;28;20415;-65
2023/12/02 17:53:18;;;;;;;69.82;31.52;;;0.90;99.90;;;;;;5078292;28;20032;-65
2023/12/02 17:55:44;;;;;;;45.80;22.98;;;0.90;99.90;;;;;;5078185;28;20093;-65
2023/12/02 17:58:10;;;;;;;58.38;27.83;;;0.90;99.90;;;;;;5077533;28;20043;-65
2023/12/02 18:00:36;;;;;;;59.47;27.48;;;0.90;99.90;;;;;;5078164;28;20063;-65
2023/12/02 18:03:02;;;;;;;50.05;24.40;;;0.90;99.90;;;;;;5077956;28;20036;-65
2023/12/02 18:05:28;;;;;;;51.13;23.02;;;0.80;99.90;;;;;;5078100;28;20044;-66
2023/12/02 18:07:54;;;;;;;50.25;24.48;;;0.80;99.90;;;;;;5077096;28;20028;-66
2023/12/02 18:10:20;;;;;;;49.30;23.38;;;0.80;99.90;;;;;;5077411;28;20123;-65
2023/12/02 18:12:46;;;;;;;46.85;22.15;;;0.70;99.90;;;;;;5078133;28;20036;-66
2023/12/02 18:15:11;;;;;;;50.05;23.55;;;0.70;99.90;;;;;;5077907;28;20051;-65
2023/12/02 18:17:37;;;;;;;48.47;22.67;;;0.60;99.90;;;;;;5077776;28;20043;-66
2023/12/02 18:20:05;;;;;;;52.15;24.15;;;0.80;99.90;;;;;;5077069;28;20043;-66
2023/12/02 18:22:32;;;;;;;46.13;22.17;;;0.80;99.90;;;;;;5076860;28;20134;-65
2023/12/02 18:24:59;;;;;;;48.25;23.13;;;0.80;99.90;;;;;;5077057;28;20064;-66
2023/12/02 18:27:24;;;;;;;48.42;22.80;;;0.80;99.90;;;;;;5077357;28;20032;-65
2023/12/02 18:29:52;;;;;;;52.78;24.17;;;0.70;99.90;;;;;;5077661;28;20024;-65
2023/12/02 18:32:18;;;;;;;47.88;22.58;;;0.70;99.90;;;;;;5076815;28;20025;-65
2023/12/02 18:34:44;;;;;;;44.30;21.38;;;0.80;99.90;;;;;;5077435;28;20061;-65
2023/12/02 18:37:10;;;;;;;56.55;22.73;;;0.80;99.90;;;;;;5076976;28;20179;-66
2023/12/02 18:39:36;;;;;;;49.28;23.10;;;0.80;99.90;;;;;;5076731;28;20063;-65
2023/12/02 18:42:02;;;;;;;51.75;24.33;;;0.90;99.90;;;;;;5059992;28;20044;-66
2023/12/02 18:44:29;;;;;;;50.38;23.25;;;0.90;99.90;;;;;;5077295;28;20115;-65
2023/12/02 18:46:54;;;;;;;47.70;23.33;;;1.00;99.90;;;;;;5077222;28;20033;-65
2023/12/02 18:49:20;;;;;;;52.80;24.95;;;1.00;99.90;;;;;;5059850;28;20093;-65
2023/12/02 18:51:46;;;;;;;54.22;23.98;;;1.10;99.90;;;;;;5076400;28;20418;-66
2023/12/02 18:54:12;;;;;;;50.65;23.58;;;1.20;99.90;;;;;;5076520;28;20161;-67
2023/12/02 18:56:37;;;;;;;55.67;24.88;;;1.40;99.90;;;;;;5076413;28;20036;-66
2023/12/02 18:59:03;;;;;;;51.05;23.95;;;1.50;99.90;;;;;;5076362;28;20040;-67
2023/12/02 19:01:29;;;;;;;53.92;22.98;;;1.60;99.90;;;;;;5077289;28;20043;-66
2023/12/02 19:03:55;;;;;;;48.70;22.90;;;1.70;99.90;;;;;;5076298;28;20033;-66
2023/12/02 19:06:21;;;;;;;50.97;23.85;;;1.80;99.90;;;;;;5076944;28;20040;-66
2023/12/02 19:08:47;;;;;;;53.75;22.48;;;2.00;99.90;;;;;;5076068;28;20303;-61
2023/12/02 19:11:13;;;;;;;48.13;22.83;;;2.10;99.90;;;;;;5076846;28;20020;-62
2023/12/02 19:13:39;;;;;;;45.50;22.23;;;2.00;99.90;;;;;;5076867;28;20024;-61
2023/12/02 19:16:06;;;;;;;51.78;23.25;;;2.10;99.90;;;;;;5076827;28;20032;-61
2023/12/02 19:18:32;;;;;;;49.55;23.50;;;2.10;99.90;;;;;;5076879;28;20398;-62
2023/12/02 19:20:58;;;;;;;56.03;22.95;;;2.30;99.90;;;;;;5076844;28;20028;-61
2023/12/02 19:23:24;;;;;;;51.88;23.90;;;2.30;99.90;;;;;;5076809;28;20041;-62
2023/12/02 19:25:50;;;;;;;54.60;24.90;;;2.20;99.90;;;;;;5076779;28;20350;-61
2023/12/02 19:28:16;;;;;;;47.92;21.42;;;2.30;99.90;;;;;;5075735;28;20131;-62
2023/12/02 19:30:41;;;;;;;46.70;23.33;;;2.40;99.90;;;;;;5076737;28;20036;-62
2023/12/02 19:33:07;;;;;;;42.95;22.27;;;2.40;99.90;;;;;;5076671;28;20029;-62
2023/12/02 19:35:33;;;;;;;44.17;23.10;;;2.30;99.90;;;;;;5075967;28;20025;-62
2023/12/02 19:38:01;;;;;;;42.33;20.42;;;2.00;99.90;;;;;;5076006;28;20040;-61
2023/12/02 19:40:28;;;;;;;42.85;19.70;;;2.00;99.90;;;;;;5076740;28;20307;-62
2023/12/02 19:42:53;;;;;;;39.42;19.95;;;2.20;99.90;;;;;;5076703;28;20043;-62
2023/12/02 19:45:19;;;;;;;37.90;18.25;;;2.30;99.90;;;;;;5076700;28;20040;-62
2023/12/02 19:47:45;;;;;;;36.33;17.48;;;2.40;99.90;;;;;;5076866;28;20059;-62
2023/12/02 19:50:12;;;;;;;36.47;19.00;;;2.50;99.90;;;;;;5078108;28;20052;-61
2023/12/02 19:52:38;;;;;;;39.35;18.90;;;2.40;99.90;;;;;;5063044;28;20135;-62
2023/12/02 19:55:05;;;;;;;37.95;19.00;;;2.20;99.90;;;;;;5063074;28;20391;-61
2023/12/02 19:57:31;;;;;;;35.92;17.73;;;1.90;99.90;;;;;;5080649;28;20020;-61
2023/12/02 19:59:57;;;;;;;32.72;17.30;;;1.90;99.90;;;;;;5079699;28;20314;-62
2023/12/02 20:02:24;;;;;;;38.50;18.58;;;1.90;99.90;;;;;;5080435;28;20020;-62
2023/12/02 20:04:50;;;;;;;39.75;20.38;;;1.90;99.90;;;;;;5079762;28;20021;-62
2023/12/02 20:07:16;;;;;;;41.28;20.83;;;2.00;99.90;;;;;;5079795;28;20432;-62
2023/12/02 20:09:42;;;;;;;38.25;20.13;;;2.00;99.90;;;;;;5080213;28;20028;-62
2023/12/02 20:12:08;;;;;;;35.53;19.55;;;2.10;99.90;;;;;;5079531;28;20036;-61
2023/12/02 20:14:34;;;;;;;39.70;21.95;;;2.10;99.90;;;;;;5080205;28;20052;-61
2023/12/02 20:16:59;;;;;;;38.28;20.73;;;2.20;99.90;;;;;;5080070;28;20048;-62
2023/12/02 20:19:25;;;;;;;37.83;19.70;;;2.40;99.90;;;;;;5079528;28;20054;-62
2023/12/02 20:21:51;;;;;;;40.38;21.80;;;2.30;99.90;;;;;;5079229;28;20135;-61
2023/12/02 20:24:17;;;;;;;35.65;19.92;;;2.30;99.90;;;;;;5079924;28;20100;-61
2023/12/02 20:26:43;;;;;;;44.97;23.92;;;2.30;99.90;;;;;;5079121;28;20090;-61
2023/12/02 20:29:09;;;;;;;38.90;21.58;;;2.30;99.90;;;;;;5079142;28;20041;-61
2023/12/02 20:31:35;;;;;;;46.25;23.65;;;2.20;99.90;;;;;;5062652;28;20111;-61
2023/12/02 20:34:01;;;;;;;42.78;22.85;;;2.20;99.90;;;;;;5079814;28;20269;-61
2023/12/02 20:36:27;;;;;;;51.53;27.20;;;2.20;99.90;;;;;;5079780;28;20093;-61
2023/12/02 20:38:53;;;;;;;36.58;19.98;;;2.30;99.90;;;;;;5079075;28;20032;-62
2023/12/02 20:41:19;;;;;;;37.28;19.02;;;2.30;99.90;;;;;;5062268;28;20040;-62
2023/12/02 20:43:45;;;;;;;37.42;19.77;;;2.20;99.90;;;;;;5045669;28;20059;-62
2023/12/02 20:46:11;;;;;;;44.53;19.75;;;2.20;99.90;;;;;;5079578;28;20036;-61
2023/12/02 20:48:41;;;;;;;41.08;19.65;;;2.20;99.90;;;;;;5079687;28;20044;-61
2023/12/02 20:51:08;;;;;;;34.13;17.95;;;2.30;99.90;;;;;;5079492;28;20095;-61
2023/12/02 20:53:34;;;;;;;29.27;17.00;;;2.20;99.90;;;;;;5079489;28;20095;-61
2023/12/02 20:56:00;;;;;;;30.63;17.65;;;2.20;99.90;;;;;;5062121;28;20128;-61
2023/12/02 20:58:26;;;;;;;31.45;17.50;;;2.20;99.90;;;;;;5079330;28;20032;-62
2023/12/02 21:00:52;;;;;;;30.98;17.85;;;2.30;99.90;;;;;;5078945;28;20032;-64
2023/12/02 21:03:18;;;;;;;36.35;19.10;;;2.30;99.90;;;;;;5079325;28;20032;-61
2023/12/02 21:05:44;;;;;;;33.33;17.52;;;2.30;99.90;;;;;;5079272;28;20035;-61
2023/12/02 21:08:10;;;;;;;32.13;18.05;;;2.20;99.90;;;;;;5079233;28;20037;-61
2023/12/02 21:10:39;;;;;;;30.15;16.98;;;2.30;99.90;;;;;;5078429;28;20028;-61
2023/12/02 21:13:05;;;;;;;32.63;17.55;;;2.30;99.90;;;;;;5062025;28;20036;-61
2023/12/02 21:15:32;;;;;;;34.05;18.58;;;2.30;99.90;;;;;;5079177;28;20025;-61
2023/12/02 21:17:57;;;;;;;31.63;18.30;;;2.40;99.90;;;;;;5078375;28;20029;-61
2023/12/02 21:20:23;;;;;;;31.00;18.33;;;2.30;99.90;;;;;;5079023;28;20043;-62
2023/12/02 21:22:49;;;;;;;32.97;18.20;;;2.30;99.90;;;;;;5078251;28;20395;-62
2023/12/02 21:25:15;;;;;;;33.60;18.55;;;2.40;99.90;;;;;;5078944;28;20036;-61
2023/12/02 21:27:45;;;;;;;32.45;17.92;;;2.30;99.90;;;;;;5077780;28;20048;-62
2023/12/02 21:30:34;;;;;;;30.20;17.77;;;2.30;99.90;;;;;;5078822;28;20031;-61
2023/12/02 21:33:04;;;;;;;31.60;17.95;;;2.40;99.90;;;;;;5078826;28;20303;-61
2023/12/02 21:35:34;;;;;;;34.40;19.02;;;2.50;99.90;;;;;;5078727;28;20037;-61
2023/12/02 21:38:04;;;;;;;33.72;19.17;;;2.50;99.90;;;;;;5078631;28;20108;-61
2023/12/02 21:40:33;;;;;;;29.48;17.83;;;2.60;99.90;;;;;;5077954;28;20055;-61
2023/12/02 21:43:02;;;;;;;29.98;17.83;;;2.60;99.90;;;;;;5078415;28;20476;-61
2023/12/02 21:45:49;;;;;;;30.17;17.17;;;2.60;99.90;;;;;;5077945;28;20334;-61
2023/12/02 21:48:40;;;;;;;30.50;17.83;;;2.70;99.90;;;;;;5077652;28;20276;-61
2023/12/02 21:51:32;;;;;;;31.60;17.92;;;2.60;99.90;;;;;;5078391;28;20048;-61
2023/12/02 21:54:03;;;;;;;31.63;18.17;;;2.50;99.90;;;;;;5077637;28;20134;-61
2023/12/02 21:56:42;;;;;;;30.98;17.17;;;2.60;99.90;;;;;;5060855;28;20425;-61
2023/12/02 21:59:12;;;;;;;32.58;17.35;;;2.50;99.90;;;;;;5077455;28;20040;-61
2023/12/02 22:01:40;;;;;;;31.20;17.90;;;2.50;99.90;;;;;;5078189;28;20056;-61
2023/12/02 22:04:11;;;;;;;30.52;17.38;;;2.50;99.90;;;;;;5078070;28;20028;-61
2023/12/02 22:06:43;;;;;;;34.28;18.00;;;2.60;99.90;;;;;;5078006;28;20032;-61
2023/12/02 22:09:19;;;;;;;28.70;16.85;;;2.50;99.90;;;;;;5060459;28;20060;-61
2023/12/02 22:11:44;;;;;;;32.80;18.60;;;2.60;99.90;;;;;;5077500;28;20044;-61
2023/12/02 22:14:19;;;;;;;35.15;18.20;;;2.50;99.90;;;;;;5077718;28;20097;-61
2023/12/02 22:16:50;;;;;;;33.67;18.30;;;2.40;99.90;;;;;;5077120;28;20052;-61
2023/12/02 22:19:17;;;;;;;32.88;17.73;;;2.40;99.90;;;;;;5077920;28;20036;-61
2023/12/02 22:21:42;;;;;;;36.47;17.58;;;2.40;99.90;;;;;;5060504;28;20084;-61
2023/12/02 22:24:10;;;;;;;33.17;18.13;;;2.20;99.90;;;;;;5077139;28;20303;-61
2023/12/02 22:26:36;;;;;;;31.33;17.60;;;2.20;99.90;;;;;;5077630;28;20174;-61
2023/12/02 22:29:09;;;;;;;34.67;17.90;;;2.20;99.90;;;;;;5077396;28;20467;-62
2023/12/02 22:31:37;;;;;;;35.55;19.20;;;2.10;99.90;;;;;;5077545;28;20116;-61
2023/12/02 22:34:12;;;;;;;33.17;18.27;;;2.20;99.90;;;;;;5077525;28;20043;-61
2023/12/02 22:36:45;;;;;;;34.47;18.05;;;2.20;99.90;;;;;;5076805;28;20145;-61
2023/12/02 22:39:22;;;;;;;32.60;17.90;;;2.20;99.90;;;;;;5076783;28;20033;-61
2023/12/02 22:41:50;;;;;;;33.92;18.58;;;2.20;99.90;;;;;;5076682;28;20130;-61
2023/12/02 22:44:20;;;;;;;32.05;17.77;;;2.20;99.90;;;;;;5077271;28;20311;-61
2023/12/02 22:47:09;;;;;;;36.05;18.40;;;2.20;99.90;;;;;;5076503;28;20099;-61
2023/12/02 22:49:35;;;;;;;32.95;17.73;;;2.20;99.90;;;;;;5077184;28;20063;-61
2023/12/02 22:52:00;;;;;;;38.28;18.52;;;2.20;99.90;;;;;;5076516;28;20032;-61
2023/12/02 22:54:32;;;;;;;35.42;18.65;;;2.20;99.90;;;;;;5077194;28;20040;-61
2023/12/02 22:56:59;;;;;;;33.72;18.05;;;2.20;99.90;;;;;;5077122;28;20478;-61
2023/12/02 22:59:25;;;;;;;33.28;18.40;;;2.10;99.90;;;;;;5076355;28;20119;-60
2023/12/02 23:01:54;;;;;;;34.45;18.40;;;2.10;99.90;;;;;;5077194;28;20135;-60
2023/12/02 23:04:37;;;;;;;33.38;18.38;;;2.10;99.90;;;;;;5076438;28;20119;-61
2023/12/02 23:07:17;;;;;;;33.70;18.77;;;2.10;99.90;;;;;;5076189;28;20133;-61
2023/12/02 23:09:46;;;;;;;35.47;18.60;;;2.00;99.90;;;;;;5076225;28;20447;-61
2023/12/02 23:12:35;;;;;;;33.22;17.98;;;2.10;99.90;;;;;;5076304;28;20095;-62
2023/12/02 23:15:07;;;;;;;29.05;17.20;;;2.10;99.90;;;;;;5071739;28;20296;-61
2023/12/02 23:17:36;;;;;;;35.90;18.42;;;2.00;99.90;;;;;;5076041;28;20403;-62
2023/12/02 23:20:08;;;;;;;38.30;19.08;;;2.00;99.90;;;;;;5076845;28;20025;-61
2023/12/02 23:22:36;;;;;;;31.85;17.92;;;1.90;99.90;;;;;;5076094;28;20033;-61
2023/12/02 23:25:08;;;;;;;31.67;17.85;;;1.80;99.90;;;;;;5076587;28;20426;-61
2023/12/02 23:27:33;;;;;;;;;;;1.90;99.90;;;;;;5077017;28;20441;-61
2023/12/02 23:29:59;;;;;;;35.78;17.75;;;1.90;99.90;;;;;;5092785;28;19912;-61
2023/12/02 23:32:25;;;;;;;35.78;19.02;;;1.90;99.90;;;;;;5076766;28;20029;-61
2023/12/02 23:34:55;;;;;;;36.08;20.00;;;1.90;99.90;;;;;;5076779;28;20119;-61
2023/12/02 23:37:31;;;;;;;36.40;18.60;;;1.90;99.90;;;;;;5076050;28;20127;-62
2023/12/02 23:39:57;;;;;;;32.15;17.27;;;1.80;99.90;;;;;;5076772;28;20060;-61
2023/12/02 23:42:41;;;;;;;34.42;18.75;;;1.80;99.90;;;;;;5075977;28;20111;-61
2023/12/02 23:45:08;;;;;;;33.55;18.25;;;1.70;99.90;;;;;;5075926;28;20036;-61
2023/12/02 23:47:33;;;;;;;33.35;17.70;;;1.70;99.90;;;;;;5076736;28;20037;-61
2023/12/02 23:49:59;;;;;;;34.25;19.05;;;1.70;99.90;;;;;;5075983;28;20037;-61
2023/12/02 23:52:25;;;;;;;31.80;17.70;;;1.70;99.90;;;;;;5059401;28;20323;-62
2023/12/02 23:54:50;;;;;;;28.92;17.13;;;1.70;99.90;;;;;;5076559;28;20048;-61
2023/12/02 23:57:16;;;;;;;32.03;18.20;;;1.70;99.90;;;;;;5075663;28;20056;-61
2023/12/02 23:59:44;;;;;;;32.58;17.60;;;1.70;99.90;;;;;;5076567;28;20040;-61
